sensor_id;sensor_type;location;lat;lon;timestamp;P1;durP1;ratioP1;P2;durP2;ratioP2
63087;SDS011;49173;43.164;27.786;2023-04-24T00:01:18;9.75;;;4.10;;
63087;SDS011;49173;43.164;27.786;2023-04-24T00:03:44;9.45;;;3.83;;
63087;SDS011;49173;43.164;27.786;2023-04-24T00:06:10;8.20;;;4.10;;
63087;SDS011;49173;43.164;27.786;2023-04-24T00:08:36;10.88;;;4.07;;
63087;SDS011;49173;43.164;27.786;2023-04-24T00:11:01;9.63;;;3.97;;
63087;SDS011;49173;43.164;27.786;2023-04-24T00:13:27;11.13;;;3.75;;
63087;SDS011;49173;43.164;27.786;2023-04-24T00:15:56;10.20;;;4.20;;
63087;SDS011;49173;43.164;27.786;2023-04-24T00:18:21;7.47;;;4.07;;
63087;SDS011;49173;43.164;27.786;2023-04-24T00:20:47;8.05;;;4.10;;
63087;SDS011;49173;43.164;27.786;2023-04-24T00:23:13;7.88;;;3.95;;
63087;SDS011;49173;43.164;27.786;2023-04-24T00:25:39;8.70;;;4.70;;
63087;SDS011;49173;43.164;27.786;2023-04-24T00:28:05;9.38;;;4.10;;
63087;SDS011;49173;43.164;27.786;2023-04-24T00:30:31;13.75;;;3.70;;
63087;SDS011;49173;43.164;27.786;2023-04-24T00:32:57;7.68;;;4.00;;
63087;SDS011;49173;43.164;27.786;2023-04-24T00:35:23;12.98;;;3.55;;
63087;SDS011;49173;43.164;27.786;2023-04-24T00:37:49;8.60;;;4.07;;
63087;SDS011;49173;43.164;27.786;2023-04-24T00:40:15;9.38;;;4.05;;
63087;SDS011;49173;43.164;27.786;2023-04-24T00:42:41;6.57;;;3.80;;
63087;SDS011;49173;43.164;27.786;2023-04-24T00:45:08;10.50;;;4.13;;
63087;SDS011;49173;43.164;27.786;2023-04-24T00:47:35;8.35;;;3.55;;
63087;SDS011;49173;43.164;27.786;2023-04-24T00:50:02;9.48;;;3.50;;
63087;SDS011;49173;43.164;27.786;2023-04-24T00:52:28;6.63;;;3.60;;
63087;SDS011;49173;43.164;27.786;2023-04-24T00:54:56;6.55;;;3.65;;
63087;SDS011;49173;43.164;27.786;2023-04-24T00:57:22;8.73;;;3.15;;
63087;SDS011;49173;43.164;27.786;2023-04-24T00:59:48;8.38;;;3.40;;
63087;SDS011;49173;43.164;27.786;2023-04-24T01:02:15;5.72;;;3.58;;
63087;SDS011;49173;43.164;27.786;2023-04-24T01:04:41;5.78;;;3.60;;
63087;SDS011;49173;43.164;27.786;2023-04-24T01:07:08;11.13;;;3.60;;
63087;SDS011;49173;43.164;27.786;2023-04-24T01:09:37;9.15;;;3.92;;
63087;SDS011;49173;43.164;27.786;2023-04-24T01:12:06;8.02;;;3.30;;
63087;SDS011;49173;43.164;27.786;2023-04-24T01:14:32;5.80;;;3.90;;
63087;SDS011;49173;43.164;27.786;2023-04-24T01:16:58;8.00;;;3.70;;
63087;SDS011;49173;43.164;27.786;2023-04-24T01:19:24;5.38;;;3.40;;
63087;SDS011;49173;43.164;27.786;2023-04-24T01:21:50;8.80;;;3.65;;
63087;SDS011;49173;43.164;27.786;2023-04-24T01:24:19;6.93;;;3.40;;
63087;SDS011;49173;43.164;27.786;2023-04-24T01:26:46;8.63;;;3.78;;
63087;SDS011;49173;43.164;27.786;2023-04-24T01:29:12;8.07;;;4.15;;
63087;SDS011;49173;43.164;27.786;2023-04-24T01:31:38;11.65;;;4.00;;
63087;SDS011;49173;43.164;27.786;2023-04-24T01:34:05;6.40;;;3.65;;
63087;SDS011;49173;43.164;27.786;2023-04-24T01:36:31;8.93;;;4.10;;
63087;SDS011;49173;43.164;27.786;2023-04-24T01:38:58;7.80;;;4.07;;
63087;SDS011;49173;43.164;27.786;2023-04-24T01:41:24;10.48;;;4.30;;
63087;SDS011;49173;43.164;27.786;2023-04-24T01:43:50;7.32;;;3.88;;
63087;SDS011;49173;43.164;27.786;2023-04-24T01:46:16;8.15;;;3.92;;
63087;SDS011;49173;43.164;27.786;2023-04-24T01:48:42;10.20;;;3.85;;
63087;SDS011;49173;43.164;27.786;2023-04-24T01:51:10;6.00;;;3.55;;
63087;SDS011;49173;43.164;27.786;2023-04-24T01:53:35;9.95;;;3.60;;
63087;SDS011;49173;43.164;27.786;2023-04-24T01:56:01;12.93;;;3.58;;
63087;SDS011;49173;43.164;27.786;2023-04-24T01:58:28;7.60;;;3.92;;
63087;SDS011;49173;43.164;27.786;2023-04-24T02:00:55;10.70;;;4.38;;
63087;SDS011;49173;43.164;27.786;2023-04-24T02:03:22;13.40;;;4.95;;
63087;SDS011;49173;43.164;27.786;2023-04-24T02:05:47;7.63;;;4.60;;
63087;SDS011;49173;43.164;27.786;2023-04-24T02:08:13;6.60;;;3.97;;
63087;SDS011;49173;43.164;27.786;2023-04-24T02:10:39;7.38;;;4.05;;
63087;SDS011;49173;43.164;27.786;2023-04-24T02:13:05;9.00;;;4.18;;
63087;SDS011;49173;43.164;27.786;2023-04-24T02:15:30;6.57;;;4.22;;
63087;SDS011;49173;43.164;27.786;2023-04-24T02:17:56;8.20;;;4.72;;
63087;SDS011;49173;43.164;27.786;2023-04-24T02:20:22;11.52;;;4.07;;
63087;SDS011;49173;43.164;27.786;2023-04-24T02:22:48;7.82;;;3.95;;
63087;SDS011;49173;43.164;27.786;2023-04-24T02:25:14;13.48;;;4.25;;
63087;SDS011;49173;43.164;27.786;2023-04-24T02:27:39;9.05;;;4.30;;
63087;SDS011;49173;43.164;27.786;2023-04-24T02:30:05;8.52;;;4.18;;
63087;SDS011;49173;43.164;27.786;2023-04-24T02:32:32;9.68;;;3.90;;
63087;SDS011;49173;43.164;27.786;2023-04-24T02:34:59;11.50;;;4.22;;
63087;SDS011;49173;43.164;27.786;2023-04-24T02:37:25;8.75;;;4.45;;
63087;SDS011;49173;43.164;27.786;2023-04-24T02:39:51;8.38;;;4.40;;
63087;SDS011;49173;43.164;27.786;2023-04-24T02:42:17;12.55;;;4.65;;
63087;SDS011;49173;43.164;27.786;2023-04-24T02:44:42;8.43;;;4.43;;
63087;SDS011;49173;43.164;27.786;2023-04-24T02:47:08;8.10;;;4.18;;
63087;SDS011;49173;43.164;27.786;2023-04-24T02:49:34;8.40;;;4.45;;
63087;SDS011;49173;43.164;27.786;2023-04-24T02:52:00;7.25;;;4.03;;
63087;SDS011;49173;43.164;27.786;2023-04-24T02:54:26;8.40;;;4.15;;
63087;SDS011;49173;43.164;27.786;2023-04-24T02:56:51;4.63;;;3.53;;
63087;SDS011;49173;43.164;27.786;2023-04-24T02:59:17;8.23;;;4.38;;
63087;SDS011;49173;43.164;27.786;2023-04-24T03:01:43;6.25;;;3.72;;
63087;SDS011;49173;43.164;27.786;2023-04-24T03:04:09;8.85;;;3.83;;
63087;SDS011;49173;43.164;27.786;2023-04-24T03:06:35;10.75;;;3.75;;
63087;SDS011;49173;43.164;27.786;2023-04-24T03:09:01;9.45;;;4.13;;
63087;SDS011;49173;43.164;27.786;2023-04-24T03:11:27;9.07;;;4.07;;
63087;SDS011;49173;43.164;27.786;2023-04-24T03:13:53;10.68;;;4.60;;
63087;SDS011;49173;43.164;27.786;2023-04-24T03:16:19;9.07;;;3.92;;
63087;SDS011;49173;43.164;27.786;2023-04-24T03:18:45;7.20;;;3.95;;
63087;SDS011;49173;43.164;27.786;2023-04-24T03:21:11;9.52;;;4.45;;
63087;SDS011;49173;43.164;27.786;2023-04-24T03:23:37;10.65;;;5.15;;
63087;SDS011;49173;43.164;27.786;2023-04-24T03:26:02;9.73;;;5.38;;
63087;SDS011;49173;43.164;27.786;2023-04-24T03:28:28;9.23;;;4.57;;
63087;SDS011;49173;43.164;27.786;2023-04-24T03:30:54;8.52;;;4.50;;
63087;SDS011;49173;43.164;27.786;2023-04-24T03:33:20;8.20;;;4.22;;
63087;SDS011;49173;43.164;27.786;2023-04-24T03:35:45;12.60;;;4.38;;
63087;SDS011;49173;43.164;27.786;2023-04-24T03:38:11;10.45;;;4.40;;
63087;SDS011;49173;43.164;27.786;2023-04-24T03:40:37;9.93;;;4.15;;
63087;SDS011;49173;43.164;27.786;2023-04-24T03:43:04;9.35;;;3.70;;
63087;SDS011;49173;43.164;27.786;2023-04-24T03:45:30;7.05;;;3.83;;
63087;SDS011;49173;43.164;27.786;2023-04-24T03:47:56;8.63;;;3.60;;
63087;SDS011;49173;43.164;27.786;2023-04-24T03:50:21;12.15;;;3.88;;
63087;SDS011;49173;43.164;27.786;2023-04-24T03:52:47;8.32;;;4.72;;
63087;SDS011;49173;43.164;27.786;2023-04-24T03:55:13;12.85;;;4.72;;
63087;SDS011;49173;43.164;27.786;2023-04-24T03:57:42;12.70;;;4.90;;
63087;SDS011;49173;43.164;27.786;2023-04-24T04:00:08;7.13;;;4.65;;
63087;SDS011;49173;43.164;27.786;2023-04-24T04:02:34;15.25;;;4.75;;
63087;SDS011;49173;43.164;27.786;2023-04-24T04:05:00;11.27;;;5.15;;
63087;SDS011;49173;43.164;27.786;2023-04-24T04:07:26;6.63;;;4.55;;
63087;SDS011;49173;43.164;27.786;2023-04-24T04:09:51;7.70;;;4.78;;
63087;SDS011;49173;43.164;27.786;2023-04-24T04:12:17;11.65;;;5.40;;
63087;SDS011;49173;43.164;27.786;2023-04-24T04:14:43;12.38;;;5.30;;
63087;SDS011;49173;43.164;27.786;2023-04-24T04:17:09;9.45;;;4.70;;
63087;SDS011;49173;43.164;27.786;2023-04-24T04:19:34;8.55;;;5.03;;
63087;SDS011;49173;43.164;27.786;2023-04-24T04:22:00;10.27;;;4.53;;
63087;SDS011;49173;43.164;27.786;2023-04-24T04:24:26;13.48;;;5.18;;
63087;SDS011;49173;43.164;27.786;2023-04-24T04:26:52;8.27;;;4.63;;
63087;SDS011;49173;43.164;27.786;2023-04-24T04:29:22;14.95;;;4.72;;
63087;SDS011;49173;43.164;27.786;2023-04-24T04:31:49;7.35;;;4.82;;
63087;SDS011;49173;43.164;27.786;2023-04-24T04:34:15;9.38;;;4.25;;
63087;SDS011;49173;43.164;27.786;2023-04-24T04:36:41;18.70;;;5.30;;
63087;SDS011;49173;43.164;27.786;2023-04-24T04:39:08;7.57;;;4.53;;
63087;SDS011;49173;43.164;27.786;2023-04-24T04:41:33;12.32;;;4.47;;
63087;SDS011;49173;43.164;27.786;2023-04-24T04:44:03;11.93;;;4.80;;
63087;SDS011;49173;43.164;27.786;2023-04-24T04:46:30;12.60;;;4.40;;
63087;SDS011;49173;43.164;27.786;2023-04-24T04:48:59;8.82;;;4.10;;
63087;SDS011;49173;43.164;27.786;2023-04-24T04:51:25;9.73;;;4.97;;
63087;SDS011;49173;43.164;27.786;2023-04-24T04:53:51;7.82;;;4.20;;
63087;SDS011;49173;43.164;27.786;2023-04-24T04:56:17;17.25;;;4.35;;
63087;SDS011;49173;43.164;27.786;2023-04-24T04:58:42;12.55;;;4.65;;
63087;SDS011;49173;43.164;27.786;2023-04-24T05:01:08;12.43;;;4.80;;
63087;SDS011;49173;43.164;27.786;2023-04-24T05:03:34;14.30;;;4.50;;
63087;SDS011;49173;43.164;27.786;2023-04-24T05:06:01;12.57;;;4.28;;
63087;SDS011;49173;43.164;27.786;2023-04-24T05:08:27;10.32;;;4.85;;
63087;SDS011;49173;43.164;27.786;2023-04-24T05:10:53;13.90;;;4.85;;
63087;SDS011;49173;43.164;27.786;2023-04-24T05:13:20;6.82;;;4.30;;
63087;SDS011;49173;43.164;27.786;2023-04-24T05:15:46;9.25;;;4.35;;
63087;SDS011;49173;43.164;27.786;2023-04-24T05:18:12;7.78;;;4.07;;
63087;SDS011;49173;43.164;27.786;2023-04-24T05:20:38;11.07;;;4.55;;
63087;SDS011;49173;43.164;27.786;2023-04-24T05:23:04;10.23;;;4.40;;
63087;SDS011;49173;43.164;27.786;2023-04-24T05:25:30;9.73;;;4.47;;
63087;SDS011;49173;43.164;27.786;2023-04-24T05:28:01;10.38;;;5.43;;
63087;SDS011;49173;43.164;27.786;2023-04-24T05:30:28;13.23;;;4.88;;
63087;SDS011;49173;43.164;27.786;2023-04-24T05:32:54;9.23;;;4.40;;
63087;SDS011;49173;43.164;27.786;2023-04-24T05:35:23;14.50;;;4.90;;
63087;SDS011;49173;43.164;27.786;2023-04-24T05:37:49;12.50;;;4.63;;
63087;SDS011;49173;43.164;27.786;2023-04-24T05:40:16;14.63;;;5.28;;
63087;SDS011;49173;43.164;27.786;2023-04-24T05:42:44;14.93;;;6.30;;
63087;SDS011;49173;43.164;27.786;2023-04-24T05:45:10;18.13;;;5.30;;
63087;SDS011;49173;43.164;27.786;2023-04-24T05:47:42;10.30;;;4.88;;
63087;SDS011;49173;43.164;27.786;2023-04-24T05:50:10;10.85;;;4.68;;
63087;SDS011;49173;43.164;27.786;2023-04-24T05:52:39;10.27;;;4.50;;
63087;SDS011;49173;43.164;27.786;2023-04-24T05:55:05;7.13;;;3.83;;
63087;SDS011;49173;43.164;27.786;2023-04-24T05:57:33;12.88;;;4.53;;
63087;SDS011;49173;43.164;27.786;2023-04-24T06:00:00;8.88;;;4.50;;
63087;SDS011;49173;43.164;27.786;2023-04-24T06:02:30;9.18;;;4.43;;
63087;SDS011;49173;43.164;27.786;2023-04-24T06:04:58;10.40;;;4.10;;
63087;SDS011;49173;43.164;27.786;2023-04-24T06:07:26;12.32;;;4.50;;
63087;SDS011;49173;43.164;27.786;2023-04-24T06:09:52;9.95;;;4.22;;
63087;SDS011;49173;43.164;27.786;2023-04-24T06:12:19;9.10;;;3.80;;
63087;SDS011;49173;43.164;27.786;2023-04-24T06:14:46;13.18;;;4.07;;
63087;SDS011;49173;43.164;27.786;2023-04-24T06:17:12;9.82;;;4.43;;
63087;SDS011;49173;43.164;27.786;2023-04-24T06:19:39;14.23;;;4.00;;
63087;SDS011;49173;43.164;27.786;2023-04-24T06:22:06;12.88;;;5.35;;
63087;SDS011;49173;43.164;27.786;2023-04-24T06:24:33;12.80;;;5.32;;
63087;SDS011;49173;43.164;27.786;2023-04-24T06:27:01;5.72;;;2.83;;
63087;SDS011;49173;43.164;27.786;2023-04-24T06:29:28;7.22;;;2.75;;
63087;SDS011;49173;43.164;27.786;2023-04-24T06:31:54;10.98;;;3.40;;
63087;SDS011;49173;43.164;27.786;2023-04-24T06:34:21;8.43;;;2.65;;
63087;SDS011;49173;43.164;27.786;2023-04-24T06:36:50;7.28;;;2.83;;
63087;SDS011;49173;43.164;27.786;2023-04-24T06:39:20;4.93;;;2.55;;
63087;SDS011;49173;43.164;27.786;2023-04-24T06:41:48;7.88;;;2.70;;
63087;SDS011;49173;43.164;27.786;2023-04-24T06:44:15;10.73;;;3.08;;
63087;SDS011;49173;43.164;27.786;2023-04-24T06:46:42;6.68;;;2.97;;
63087;SDS011;49173;43.164;27.786;2023-04-24T06:49:09;6.53;;;3.05;;
63087;SDS011;49173;43.164;27.786;2023-04-24T06:51:36;8.82;;;3.20;;
63087;SDS011;49173;43.164;27.786;2023-04-24T06:54:02;5.47;;;2.88;;
63087;SDS011;49173;43.164;27.786;2023-04-24T06:56:32;7.45;;;2.70;;
63087;SDS011;49173;43.164;27.786;2023-04-24T06:59:00;6.90;;;2.80;;
63087;SDS011;49173;43.164;27.786;2023-04-24T07:01:28;5.25;;;3.00;;
63087;SDS011;49173;43.164;27.786;2023-04-24T07:03:54;6.35;;;2.90;;
63087;SDS011;49173;43.164;27.786;2023-04-24T07:06:21;5.43;;;2.80;;
63087;SDS011;49173;43.164;27.786;2023-04-24T07:08:49;6.90;;;3.43;;
63087;SDS011;49173;43.164;27.786;2023-04-24T07:11:17;7.40;;;3.17;;
63087;SDS011;49173;43.164;27.786;2023-04-24T07:13:46;6.78;;;2.85;;
63087;SDS011;49173;43.164;27.786;2023-04-24T07:16:13;8.68;;;3.75;;
63087;SDS011;49173;43.164;27.786;2023-04-24T07:18:41;8.10;;;2.92;;
63087;SDS011;49173;43.164;27.786;2023-04-24T07:21:07;6.70;;;3.20;;
63087;SDS011;49173;43.164;27.786;2023-04-24T07:23:34;11.23;;;3.92;;
63087;SDS011;49173;43.164;27.786;2023-04-24T07:26:02;9.30;;;3.38;;
63087;SDS011;49173;43.164;27.786;2023-04-24T07:28:29;8.55;;;3.15;;
63087;SDS011;49173;43.164;27.786;2023-04-24T07:30:58;8.98;;;3.55;;
63087;SDS011;49173;43.164;27.786;2023-04-24T07:33:26;8.68;;;2.85;;
63087;SDS011;49173;43.164;27.786;2023-04-24T07:35:53;6.82;;;3.13;;
63087;SDS011;49173;43.164;27.786;2023-04-24T07:38:21;6.77;;;3.03;;
63087;SDS011;49173;43.164;27.786;2023-04-24T07:40:51;7.05;;;3.10;;
63087;SDS011;49173;43.164;27.786;2023-04-24T07:43:21;7.93;;;3.15;;
63087;SDS011;49173;43.164;27.786;2023-04-24T07:45:50;8.10;;;3.22;;
63087;SDS011;49173;43.164;27.786;2023-04-24T07:48:17;11.98;;;3.47;;
63087;SDS011;49173;43.164;27.786;2023-04-24T07:50:44;8.50;;;3.17;;
63087;SDS011;49173;43.164;27.786;2023-04-24T07:53:10;10.80;;;3.10;;
63087;SDS011;49173;43.164;27.786;2023-04-24T07:55:37;7.10;;;2.83;;
63087;SDS011;49173;43.164;27.786;2023-04-24T07:58:04;6.68;;;2.78;;
63087;SDS011;49173;43.164;27.786;2023-04-24T08:00:31;7.53;;;3.20;;
63087;SDS011;49173;43.164;27.786;2023-04-24T08:02:57;6.78;;;2.90;;
63087;SDS011;49173;43.164;27.786;2023-04-24T08:05:24;10.80;;;3.25;;
63087;SDS011;49173;43.164;27.786;2023-04-24T08:07:52;8.75;;;3.20;;
63087;SDS011;49173;43.164;27.786;2023-04-24T08:10:22;6.70;;;2.75;;
63087;SDS011;49173;43.164;27.786;2023-04-24T08:12:48;8.95;;;2.78;;
63087;SDS011;49173;43.164;27.786;2023-04-24T08:15:15;8.63;;;2.88;;
63087;SDS011;49173;43.164;27.786;2023-04-24T08:17:41;10.02;;;3.50;;
63087;SDS011;49173;43.164;27.786;2023-04-24T08:20:09;7.78;;;3.20;;
63087;SDS011;49173;43.164;27.786;2023-04-24T08:22:41;9.20;;;3.67;;
63087;SDS011;49173;43.164;27.786;2023-04-24T08:25:09;5.45;;;2.58;;
63087;SDS011;49173;43.164;27.786;2023-04-24T08:27:37;12.00;;;3.45;;
63087;SDS011;49173;43.164;27.786;2023-04-24T08:30:04;6.53;;;2.85;;
63087;SDS011;49173;43.164;27.786;2023-04-24T08:32:33;7.13;;;3.30;;
63087;SDS011;49173;43.164;27.786;2023-04-24T08:35:02;7.70;;;3.65;;
63087;SDS011;49173;43.164;27.786;2023-04-24T08:37:29;5.18;;;2.72;;
63087;SDS011;49173;43.164;27.786;2023-04-24T08:39:56;11.82;;;3.42;;
63087;SDS011;49173;43.164;27.786;2023-04-24T08:42:23;10.98;;;3.10;;
63087;SDS011;49173;43.164;27.786;2023-04-24T08:44:50;6.20;;;2.95;;
63087;SDS011;49173;43.164;27.786;2023-04-24T08:47:16;7.68;;;2.92;;
63087;SDS011;49173;43.164;27.786;2023-04-24T08:49:45;8.02;;;3.50;;
63087;SDS011;49173;43.164;27.786;2023-04-24T08:52:16;8.63;;;3.00;;
63087;SDS011;49173;43.164;27.786;2023-04-24T08:54:45;9.32;;;3.40;;
63087;SDS011;49173;43.164;27.786;2023-04-24T08:57:14;5.13;;;2.67;;
63087;SDS011;49173;43.164;27.786;2023-04-24T08:59:43;9.23;;;3.25;;
63087;SDS011;49173;43.164;27.786;2023-04-24T09:02:16;8.05;;;3.35;;
63087;SDS011;49173;43.164;27.786;2023-04-24T09:04:47;8.98;;;2.90;;
63087;SDS011;49173;43.164;27.786;2023-04-24T09:07:14;10.88;;;2.50;;
63087;SDS011;49173;43.164;27.786;2023-04-24T09:09:46;7.68;;;2.60;;
63087;SDS011;49173;43.164;27.786;2023-04-24T09:12:17;5.72;;;2.67;;
63087;SDS011;49173;43.164;27.786;2023-04-24T09:14:45;9.93;;;2.92;;
63087;SDS011;49173;43.164;27.786;2023-04-24T09:17:12;7.07;;;2.88;;
63087;SDS011;49173;43.164;27.786;2023-04-24T09:19:39;11.88;;;2.80;;
63087;SDS011;49173;43.164;27.786;2023-04-24T09:22:09;10.02;;;3.05;;
63087;SDS011;49173;43.164;27.786;2023-04-24T09:24:37;7.60;;;2.65;;
63087;SDS011;49173;43.164;27.786;2023-04-24T09:27:05;10.23;;;3.05;;
63087;SDS011;49173;43.164;27.786;2023-04-24T09:29:33;8.38;;;3.00;;
63087;SDS011;49173;43.164;27.786;2023-04-24T09:32:10;10.75;;;2.65;;
63087;SDS011;49173;43.164;27.786;2023-04-24T09:34:47;5.80;;;2.67;;
63087;SDS011;49173;43.164;27.786;2023-04-24T09:40:11;5.50;;;2.85;;
63087;SDS011;49173;43.164;27.786;2023-04-24T09:42:59;7.63;;;2.92;;
63087;SDS011;49173;43.164;27.786;2023-04-24T09:45:28;10.30;;;2.53;;
63087;SDS011;49173;43.164;27.786;2023-04-24T09:48:02;9.55;;;2.70;;
63087;SDS011;49173;43.164;27.786;2023-04-24T09:50:29;4.95;;;2.40;;
63087;SDS011;49173;43.164;27.786;2023-04-24T09:53:04;6.00;;;2.63;;
63087;SDS011;49173;43.164;27.786;2023-04-24T09:55:39;8.88;;;2.78;;
63087;SDS011;49173;43.164;27.786;2023-04-24T09:58:12;7.07;;;2.70;;
63087;SDS011;49173;43.164;27.786;2023-04-24T10:00:39;4.90;;;2.50;;
63087;SDS011;49173;43.164;27.786;2023-04-24T10:03:06;8.65;;;2.78;;
63087;SDS011;49173;43.164;27.786;2023-04-24T10:05:35;5.97;;;2.53;;
63087;SDS011;49173;43.164;27.786;2023-04-24T10:08:09;11.63;;;2.42;;
63087;SDS011;49173;43.164;27.786;2023-04-24T10:10:41;5.20;;;2.70;;
63087;SDS011;49173;43.164;27.786;2023-04-24T10:13:11;6.45;;;2.70;;
63087;SDS011;49173;43.164;27.786;2023-04-24T10:15:42;5.07;;;2.30;;
63087;SDS011;49173;43.164;27.786;2023-04-24T10:18:11;6.53;;;2.25;;
63087;SDS011;49173;43.164;27.786;2023-04-24T10:20:41;8.07;;;2.80;;
63087;SDS011;49173;43.164;27.786;2023-04-24T10:23:09;6.78;;;2.60;;
63087;SDS011;49173;43.164;27.786;2023-04-24T10:25:37;7.45;;;2.58;;
63087;SDS011;49173;43.164;27.786;2023-04-24T10:28:05;5.75;;;2.47;;
63087;SDS011;49173;43.164;27.786;2023-04-24T10:30:33;6.65;;;2.28;;
63087;SDS011;49173;43.164;27.786;2023-04-24T10:33:05;4.60;;;2.67;;
63087;SDS011;49173;43.164;27.786;2023-04-24T10:35:34;12.77;;;2.70;;
63087;SDS011;49173;43.164;27.786;2023-04-24T10:38:09;7.07;;;2.70;;
63087;SDS011;49173;43.164;27.786;2023-04-24T10:40:38;7.80;;;2.70;;
63087;SDS011;49173;43.164;27.786;2023-04-24T10:43:07;7.88;;;2.75;;
63087;SDS011;49173;43.164;27.786;2023-04-24T10:45:37;5.95;;;2.60;;
63087;SDS011;49173;43.164;27.786;2023-04-24T10:48:05;8.07;;;2.85;;
63087;SDS011;49173;43.164;27.786;2023-04-24T10:50:51;5.32;;;2.40;;
63087;SDS011;49173;43.164;27.786;2023-04-24T10:53:23;6.07;;;2.60;;
63087;SDS011;49173;43.164;27.786;2023-04-24T10:58:38;5.60;;;2.83;;
63087;SDS011;49173;43.164;27.786;2023-04-24T11:01:31;6.78;;;2.35;;
63087;SDS011;49173;43.164;27.786;2023-04-24T11:04:00;6.55;;;2.78;;
63087;SDS011;49173;43.164;27.786;2023-04-24T11:06:34;9.20;;;2.83;;
63087;SDS011;49173;43.164;27.786;2023-04-24T11:09:04;9.57;;;2.42;;
63087;SDS011;49173;43.164;27.786;2023-04-24T11:11:33;9.98;;;2.85;;
63087;SDS011;49173;43.164;27.786;2023-04-24T11:14:03;6.97;;;2.40;;
63087;SDS011;49173;43.164;27.786;2023-04-24T11:19:22;8.35;;;2.95;;
63087;SDS011;49173;43.164;27.786;2023-04-24T11:21:58;11.40;;;2.90;;
63087;SDS011;49173;43.164;27.786;2023-04-24T11:29:39;6.68;;;2.80;;
63087;SDS011;49173;43.164;27.786;2023-04-24T11:32:17;4.25;;;2.58;;
63087;SDS011;49173;43.164;27.786;2023-04-24T11:34:54;5.45;;;2.65;;
63087;SDS011;49173;43.164;27.786;2023-04-24T11:37:55;6.75;;;2.40;;
63087;SDS011;49173;43.164;27.786;2023-04-24T11:40:26;7.90;;;2.33;;
63087;SDS011;49173;43.164;27.786;2023-04-24T11:42:53;6.53;;;2.42;;
63087;SDS011;49173;43.164;27.786;2023-04-24T11:47:51;7.20;;;2.97;;
63087;SDS011;49173;43.164;27.786;2023-04-24T11:50:21;8.48;;;2.60;;
63087;SDS011;49173;43.164;27.786;2023-04-24T11:52:54;7.47;;;2.60;;
63087;SDS011;49173;43.164;27.786;2023-04-24T11:55:27;4.82;;;2.50;;
63087;SDS011;49173;43.164;27.786;2023-04-24T11:57:56;5.20;;;2.50;;
63087;SDS011;49173;43.164;27.786;2023-04-24T12:00:28;9.05;;;2.70;;
63087;SDS011;49173;43.164;27.786;2023-04-24T12:03:18;6.88;;;2.72;;
63087;SDS011;49173;43.164;27.786;2023-04-24T12:05:44;6.63;;;2.40;;
63087;SDS011;49173;43.164;27.786;2023-04-24T12:08:12;5.07;;;2.30;;
63087;SDS011;49173;43.164;27.786;2023-04-24T12:10:54;5.97;;;2.65;;
63087;SDS011;49173;43.164;27.786;2023-04-24T12:13:21;5.95;;;2.53;;
63087;SDS011;49173;43.164;27.786;2023-04-24T12:18:22;13.20;;;2.90;;
63087;SDS011;49173;43.164;27.786;2023-04-24T12:20:52;8.48;;;2.40;;
63087;SDS011;49173;43.164;27.786;2023-04-24T12:23:34;8.45;;;2.88;;
63087;SDS011;49173;43.164;27.786;2023-04-24T12:26:03;12.10;;;2.60;;
63087;SDS011;49173;43.164;27.786;2023-04-24T12:28:36;8.75;;;2.95;;
63087;SDS011;49173;43.164;27.786;2023-04-24T12:31:04;8.60;;;2.35;;
63087;SDS011;49173;43.164;27.786;2023-04-24T12:33:35;7.50;;;2.60;;
63087;SDS011;49173;43.164;27.786;2023-04-24T12:36:04;5.72;;;2.42;;
63087;SDS011;49173;43.164;27.786;2023-04-24T12:38:32;6.10;;;2.63;;
63087;SDS011;49173;43.164;27.786;2023-04-24T12:41:08;5.30;;;2.55;;
63087;SDS011;49173;43.164;27.786;2023-04-24T12:43:36;9.88;;;2.92;;
63087;SDS011;49173;43.164;27.786;2023-04-24T12:46:03;9.02;;;2.50;;
63087;SDS011;49173;43.164;27.786;2023-04-24T12:48:32;6.25;;;2.33;;
63087;SDS011;49173;43.164;27.786;2023-04-24T12:51:01;7.78;;;2.65;;
63087;SDS011;49173;43.164;27.786;2023-04-24T12:53:29;8.43;;;2.63;;
63087;SDS011;49173;43.164;27.786;2023-04-24T12:55:56;6.13;;;2.50;;
63087;SDS011;49173;43.164;27.786;2023-04-24T12:58:26;7.38;;;2.17;;
63087;SDS011;49173;43.164;27.786;2023-04-24T13:00:52;8.45;;;2.72;;
63087;SDS011;49173;43.164;27.786;2023-04-24T13:03:19;5.38;;;2.40;;
63087;SDS011;49173;43.164;27.786;2023-04-24T13:05:48;8.57;;;2.28;;
63087;SDS011;49173;43.164;27.786;2023-04-24T13:08:17;5.80;;;2.47;;
63087;SDS011;49173;43.164;27.786;2023-04-24T13:10:46;7.70;;;3.17;;
63087;SDS011;49173;43.164;27.786;2023-04-24T13:13:17;6.68;;;3.03;;
63087;SDS011;49173;43.164;27.786;2023-04-24T13:15:46;7.10;;;2.70;;
63087;SDS011;49173;43.164;27.786;2023-04-24T13:18:12;5.32;;;2.42;;
63087;SDS011;49173;43.164;27.786;2023-04-24T13:20:39;7.93;;;2.67;;
63087;SDS011;49173;43.164;27.786;2023-04-24T13:23:11;4.68;;;2.28;;
63087;SDS011;49173;43.164;27.786;2023-04-24T13:25:38;4.65;;;2.75;;
63087;SDS011;49173;43.164;27.786;2023-04-24T13:28:04;8.00;;;2.78;;
63087;SDS011;49173;43.164;27.786;2023-04-24T13:30:33;8.52;;;2.30;;
63087;SDS011;49173;43.164;27.786;2023-04-24T13:33:00;6.07;;;2.40;;
63087;SDS011;49173;43.164;27.786;2023-04-24T13:35:28;8.02;;;2.85;;
63087;SDS011;49173;43.164;27.786;2023-04-24T13:37:55;4.60;;;2.30;;
63087;SDS011;49173;43.164;27.786;2023-04-24T13:40:21;9.25;;;1.92;;
63087;SDS011;49173;43.164;27.786;2023-04-24T13:42:48;8.15;;;2.30;;
63087;SDS011;49173;43.164;27.786;2023-04-24T13:45:17;6.95;;;2.20;;
63087;SDS011;49173;43.164;27.786;2023-04-24T13:47:44;7.28;;;2.20;;
63087;SDS011;49173;43.164;27.786;2023-04-24T13:50:11;5.60;;;2.25;;
63087;SDS011;49173;43.164;27.786;2023-04-24T13:52:38;7.90;;;2.65;;
63087;SDS011;49173;43.164;27.786;2023-04-24T13:55:05;7.97;;;2.33;;
63087;SDS011;49173;43.164;27.786;2023-04-24T13:57:33;5.85;;;2.22;;
63087;SDS011;49173;43.164;27.786;2023-04-24T14:00:00;6.50;;;2.33;;
63087;SDS011;49173;43.164;27.786;2023-04-24T14:02:27;6.68;;;2.33;;
63087;SDS011;49173;43.164;27.786;2023-04-24T14:04:56;6.53;;;2.05;;
63087;SDS011;49173;43.164;27.786;2023-04-24T14:07:24;6.40;;;2.30;;
63087;SDS011;49173;43.164;27.786;2023-04-24T14:09:52;5.85;;;2.42;;
63087;SDS011;49173;43.164;27.786;2023-04-24T14:12:19;6.15;;;2.40;;
63087;SDS011;49173;43.164;27.786;2023-04-24T14:14:46;6.93;;;3.03;;
63087;SDS011;49173;43.164;27.786;2023-04-24T14:17:14;8.68;;;3.25;;
63087;SDS011;49173;43.164;27.786;2023-04-24T14:19:41;7.95;;;3.47;;
63087;SDS011;49173;43.164;27.786;2023-04-24T14:22:09;6.82;;;2.42;;
63087;SDS011;49173;43.164;27.786;2023-04-24T14:24:35;7.93;;;2.28;;
63087;SDS011;49173;43.164;27.786;2023-04-24T14:27:02;7.00;;;2.63;;
63087;SDS011;49173;43.164;27.786;2023-04-24T14:29:31;7.72;;;2.88;;
63087;SDS011;49173;43.164;27.786;2023-04-24T14:31:59;6.38;;;2.30;;
63087;SDS011;49173;43.164;27.786;2023-04-24T14:34:26;6.68;;;2.20;;
63087;SDS011;49173;43.164;27.786;2023-04-24T14:36:53;6.28;;;2.40;;
63087;SDS011;49173;43.164;27.786;2023-04-24T14:39:20;5.75;;;2.50;;
63087;SDS011;49173;43.164;27.786;2023-04-24T14:41:46;10.52;;;2.63;;
63087;SDS011;49173;43.164;27.786;2023-04-24T14:44:13;5.70;;;2.30;;
63087;SDS011;49173;43.164;27.786;2023-04-24T14:46:41;5.53;;;2.25;;
63087;SDS011;49173;43.164;27.786;2023-04-24T14:49:10;6.85;;;2.30;;
63087;SDS011;49173;43.164;27.786;2023-04-24T14:51:38;9.15;;;2.30;;
63087;SDS011;49173;43.164;27.786;2023-04-24T14:54:09;5.60;;;2.35;;